Terminal Aerodrome Forecast
Issued by NWS Louisville, KY

Home | Current Version | Previous Version | Text Only | Print | Product List | Glossary On
Versions: 1 2 3 4 5 6 7 8 9 10 11 12 13
000
FTUS43 KLMK 272200 AAA
TAFLEX
TAF AMD
KLEX 272225Z 2722/2818 VRB05KT P6SM VCTS SCT040CB
     FM272300 VRB15G25KT 2SM TSRA BR BKN035CB
     FM280000 VRB05KT P6SM BKN040
     FM280900 02003KT 5SM BR SKC
     FM281300 06005KT P6SM SCT040=

USA.gov is the U.S. government's official web portal to all federal, state and local government web resources and services.